sensor_id;sensor_type;location;lat;lon;timestamp;P1;durP1;ratioP1;P2;durP2;ratioP2
51525;SDS011;37611;51.794;21.590;2023-04-06T06:46:33;11.80;;;7.40;;
51525;SDS011;37611;51.794;21.590;2023-04-06T06:52:26;12.70;;;6.60;;
51525;SDS011;37611;51.794;21.590;2023-04-06T06:56:30;28.30;;;13.50;;
51525;SDS011;37611;51.794;21.590;2023-04-06T07:00:32;11.40;;;6.80;;
51525;SDS011;37611;51.794;21.590;2023-04-06T07:04:34;11.10;;;6.80;;
51525;SDS011;37611;51.794;21.590;2023-04-06T07:08:56;11.40;;;7.60;;
51525;SDS011;37611;51.794;21.590;2023-04-06T07:12:58;9.00;;;5.70;;
51525;SDS011;37611;51.794;21.590;2023-04-06T07:17:03;7.80;;;5.70;;
51525;SDS011;37611;51.794;21.590;2023-04-06T07:21:05;10.50;;;6.40;;
51525;SDS011;37611;51.794;21.590;2023-04-06T07:25:07;10.40;;;5.00;;
51525;SDS011;37611;51.794;21.590;2023-04-06T07:29:09;9.10;;;5.60;;
51525;SDS011;37611;51.794;21.590;2023-04-06T07:33:11;8.70;;;4.60;;
51525;SDS011;37611;51.794;21.590;2023-04-06T07:37:13;8.90;;;5.30;;
51525;SDS011;37611;51.794;21.590;2023-04-06T07:41:15;9.80;;;6.10;;
51525;SDS011;37611;51.794;21.590;2023-04-06T07:45:17;8.90;;;5.80;;
51525;SDS011;37611;51.794;21.590;2023-04-06T07:49:19;10.40;;;5.50;;
51525;SDS011;37611;51.794;21.590;2023-04-06T07:53:22;7.70;;;5.80;;
51525;SDS011;37611;51.794;21.590;2023-04-06T07:57:25;14.10;;;8.40;;
51525;SDS011;37611;51.794;21.590;2023-04-06T08:01:27;26.10;;;15.40;;
51525;SDS011;37611;51.794;21.590;2023-04-06T08:05:30;10.60;;;8.00;;
51525;SDS011;37611;51.794;21.590;2023-04-06T08:09:31;9.50;;;5.80;;
51525;SDS011;37611;51.794;21.590;2023-04-06T08:13:34;11.00;;;9.00;;
51525;SDS011;37611;51.794;21.590;2023-04-06T08:17:36;14.20;;;9.00;;
51525;SDS011;37611;51.794;21.590;2023-04-06T08:21:38;25.40;;;15.90;;
51525;SDS011;37611;51.794;21.590;2023-04-06T08:25:43;24.30;;;13.10;;
51525;SDS011;37611;51.794;21.590;2023-04-06T08:29:45;14.70;;;11.50;;
51525;SDS011;37611;51.794;21.590;2023-04-06T08:33:47;15.10;;;9.90;;
51525;SDS011;37611;51.794;21.590;2023-04-06T08:37:49;11.50;;;7.90;;
51525;SDS011;37611;51.794;21.590;2023-04-06T08:41:51;11.20;;;7.50;;
51525;SDS011;37611;51.794;21.590;2023-04-06T08:45:54;10.90;;;6.80;;
51525;SDS011;37611;51.794;21.590;2023-04-06T08:49:56;14.50;;;9.90;;
51525;SDS011;37611;51.794;21.590;2023-04-06T08:53:59;12.30;;;7.50;;
51525;SDS011;37611;51.794;21.590;2023-04-06T08:58:01;7.40;;;5.40;;
51525;SDS011;37611;51.794;21.590;2023-04-06T09:02:04;8.70;;;6.50;;
51525;SDS011;37611;51.794;21.590;2023-04-06T09:06:10;10.70;;;6.80;;
51525;SDS011;37611;51.794;21.590;2023-04-06T09:10:13;10.50;;;6.40;;
51525;SDS011;37611;51.794;21.590;2023-04-06T09:14:17;8.70;;;6.10;;
51525;SDS011;37611;51.794;21.590;2023-04-06T09:18:34;9.30;;;5.90;;
51525;SDS011;37611;51.794;21.590;2023-04-06T09:22:37;9.70;;;6.40;;
51525;SDS011;37611;51.794;21.590;2023-04-06T09:26:44;9.00;;;6.40;;
51525;SDS011;37611;51.794;21.590;2023-04-06T09:30:48;6.40;;;5.00;;
51525;SDS011;37611;51.794;21.590;2023-04-06T09:34:50;7.10;;;5.30;;
51525;SDS011;37611;51.794;21.590;2023-04-06T09:38:53;9.10;;;5.80;;
51525;SDS011;37611;51.794;21.590;2023-04-06T09:42:59;7.80;;;5.30;;
51525;SDS011;37611;51.794;21.590;2023-04-06T09:47:04;8.90;;;6.10;;
51525;SDS011;37611;51.794;21.590;2023-04-06T09:51:09;14.10;;;10.50;;
51525;SDS011;37611;51.794;21.590;2023-04-06T09:55:34;11.00;;;7.10;;
51525;SDS011;37611;51.794;21.590;2023-04-06T09:59:56;10.90;;;7.80;;
51525;SDS011;37611;51.794;21.590;2023-04-06T10:04:21;12.10;;;7.60;;
51525;SDS011;37611;51.794;21.590;2023-04-06T10:08:33;8.20;;;5.80;;
51525;SDS011;37611;51.794;21.590;2023-04-06T10:12:41;13.40;;;8.50;;
51525;SDS011;37611;51.794;21.590;2023-04-06T10:16:46;15.20;;;10.00;;
51525;SDS011;37611;51.794;21.590;2023-04-06T10:25:29;27.50;;;16.70;;
51525;SDS011;37611;51.794;21.590;2023-04-06T10:29:45;9.80;;;7.40;;
51525;SDS011;37611;51.794;21.590;2023-04-06T10:33:59;19.40;;;11.70;;
51525;SDS011;37611;51.794;21.590;2023-04-06T10:38:03;13.90;;;9.40;;
51525;SDS011;37611;51.794;21.590;2023-04-06T10:42:06;18.00;;;13.70;;
51525;SDS011;37611;51.794;21.590;2023-04-06T10:46:10;13.80;;;11.40;;
51525;SDS011;37611;51.794;21.590;2023-04-06T10:50:14;22.30;;;14.70;;
51525;SDS011;37611;51.794;21.590;2023-04-06T10:54:26;12.80;;;8.90;;
51525;SDS011;37611;51.794;21.590;2023-04-06T10:58:48;29.60;;;26.50;;
51525;SDS011;37611;51.794;21.590;2023-04-06T11:03:00;36.60;;;26.50;;
51525;SDS011;37611;51.794;21.590;2023-04-06T11:07:48;34.70;;;22.90;;
51525;SDS011;37611;51.794;21.590;2023-04-06T11:12:20;15.50;;;11.90;;
51525;SDS011;37611;51.794;21.590;2023-04-06T11:16:46;11.50;;;8.40;;
51525;SDS011;37611;51.794;21.590;2023-04-06T11:20:52;13.20;;;9.10;;
51525;SDS011;37611;51.794;21.590;2023-04-06T11:25:05;10.30;;;7.70;;
51525;SDS011;37611;51.794;21.590;2023-04-06T11:29:09;15.50;;;11.10;;
51525;SDS011;37611;51.794;21.590;2023-04-06T11:33:19;12.40;;;8.10;;
51525;SDS011;37611;51.794;21.590;2023-04-06T11:37:25;12.70;;;8.20;;
51525;SDS011;37611;51.794;21.590;2023-04-06T11:41:28;11.30;;;8.30;;
51525;SDS011;37611;51.794;21.590;2023-04-06T11:45:39;16.90;;;12.10;;
51525;SDS011;37611;51.794;21.590;2023-04-06T11:49:43;18.20;;;15.60;;
51525;SDS011;37611;51.794;21.590;2023-04-06T11:53:48;10.60;;;8.50;;
51525;SDS011;37611;51.794;21.590;2023-04-06T11:57:50;10.10;;;7.20;;
51525;SDS011;37611;51.794;21.590;2023-04-06T12:01:53;12.00;;;9.20;;
51525;SDS011;37611;51.794;21.590;2023-04-06T12:05:55;12.40;;;8.70;;
51525;SDS011;37611;51.794;21.590;2023-04-06T12:09:57;14.10;;;9.50;;
51525;SDS011;37611;51.794;21.590;2023-04-06T12:14:00;10.50;;;7.60;;
51525;SDS011;37611;51.794;21.590;2023-04-06T12:18:06;19.50;;;16.30;;
51525;SDS011;37611;51.794;21.590;2023-04-06T12:22:07;20.20;;;14.00;;
51525;SDS011;37611;51.794;21.590;2023-04-06T12:26:09;10.50;;;8.80;;
51525;SDS011;37611;51.794;21.590;2023-04-06T12:30:12;17.30;;;12.50;;
51525;SDS011;37611;51.794;21.590;2023-04-06T12:34:23;41.40;;;26.00;;
51525;SDS011;37611;51.794;21.590;2023-04-06T12:38:27;27.10;;;17.20;;
51525;SDS011;37611;51.794;21.590;2023-04-06T12:42:29;12.00;;;9.30;;
51525;SDS011;37611;51.794;21.590;2023-04-06T12:46:30;12.50;;;10.50;;
51525;SDS011;37611;51.794;21.590;2023-04-06T12:51:01;19.20;;;15.00;;
51525;SDS011;37611;51.794;21.590;2023-04-06T12:55:04;27.40;;;19.60;;
51525;SDS011;37611;51.794;21.590;2023-04-06T12:59:07;30.80;;;23.10;;
51525;SDS011;37611;51.794;21.590;2023-04-06T13:03:09;24.20;;;19.30;;
51525;SDS011;37611;51.794;21.590;2023-04-06T13:07:13;17.50;;;13.40;;
51525;SDS011;37611;51.794;21.590;2023-04-06T13:11:15;22.40;;;17.50;;
51525;SDS011;37611;51.794;21.590;2023-04-06T13:15:17;24.50;;;17.70;;
51525;SDS011;37611;51.794;21.590;2023-04-06T13:19:27;27.10;;;19.60;;
51525;SDS011;37611;51.794;21.590;2023-04-06T13:23:32;25.00;;;17.60;;
51525;SDS011;37611;51.794;21.590;2023-04-06T13:27:37;22.70;;;16.80;;
51525;SDS011;37611;51.794;21.590;2023-04-06T13:31:39;22.80;;;17.50;;
51525;SDS011;37611;51.794;21.590;2023-04-06T13:35:44;21.40;;;15.10;;
51525;SDS011;37611;51.794;21.590;2023-04-06T13:39:47;15.30;;;11.20;;
51525;SDS011;37611;51.794;21.590;2023-04-06T13:43:49;112.60;;;58.40;;
51525;SDS011;37611;51.794;21.590;2023-04-06T13:47:51;97.10;;;49.10;;
51525;SDS011;37611;51.794;21.590;2023-04-06T13:51:53;41.70;;;24.90;;
51525;SDS011;37611;51.794;21.590;2023-04-06T13:55:55;26.30;;;18.80;;
51525;SDS011;37611;51.794;21.590;2023-04-06T14:00:21;33.30;;;21.60;;
51525;SDS011;37611;51.794;21.590;2023-04-06T14:04:23;28.50;;;18.90;;
51525;SDS011;37611;51.794;21.590;2023-04-06T14:08:28;30.30;;;17.60;;
51525;SDS011;37611;51.794;21.590;2023-04-06T14:12:30;30.10;;;19.00;;
51525;SDS011;37611;51.794;21.590;2023-04-06T14:16:33;53.30;;;35.70;;
51525;SDS011;37611;51.794;21.590;2023-04-06T14:20:35;26.10;;;17.30;;
51525;SDS011;37611;51.794;21.590;2023-04-06T14:24:37;44.60;;;23.60;;
51525;SDS011;37611;51.794;21.590;2023-04-06T14:28:39;29.10;;;16.60;;
51525;SDS011;37611;51.794;21.590;2023-04-06T14:32:41;23.90;;;13.00;;
51525;SDS011;37611;51.794;21.590;2023-04-06T14:36:43;20.30;;;14.20;;
51525;SDS011;37611;51.794;21.590;2023-04-06T14:40:48;62.90;;;32.80;;
51525;SDS011;37611;51.794;21.590;2023-04-06T14:44:50;30.30;;;21.10;;
51525;SDS011;37611;51.794;21.590;2023-04-06T14:48:55;24.60;;;18.80;;
51525;SDS011;37611;51.794;21.590;2023-04-06T14:52:59;40.60;;;23.40;;
51525;SDS011;37611;51.794;21.590;2023-04-06T14:57:02;25.90;;;18.80;;
51525;SDS011;37611;51.794;21.590;2023-04-06T15:01:04;45.30;;;28.10;;
51525;SDS011;37611;51.794;21.590;2023-04-06T15:05:07;75.60;;;34.80;;
51525;SDS011;37611;51.794;21.590;2023-04-06T15:09:10;51.60;;;27.00;;
51525;SDS011;37611;51.794;21.590;2023-04-06T15:13:11;61.90;;;34.30;;
51525;SDS011;37611;51.794;21.590;2023-04-06T15:17:13;45.90;;;26.80;;
51525;SDS011;37611;51.794;21.590;2023-04-06T15:21:16;63.20;;;37.30;;
51525;SDS011;37611;51.794;21.590;2023-04-06T15:25:19;46.10;;;26.60;;
51525;SDS011;37611;51.794;21.590;2023-04-06T15:29:21;21.60;;;18.10;;
51525;SDS011;37611;51.794;21.590;2023-04-06T15:33:22;41.90;;;31.80;;
51525;SDS011;37611;51.794;21.590;2023-04-06T15:37:27;17.10;;;14.50;;
51525;SDS011;37611;51.794;21.590;2023-04-06T15:41:29;18.10;;;13.50;;
51525;SDS011;37611;51.794;21.590;2023-04-06T15:50:09;27.00;;;21.10;;
51525;SDS011;37611;51.794;21.590;2023-04-06T15:54:15;20.70;;;16.70;;
51525;SDS011;37611;51.794;21.590;2023-04-06T15:58:29;19.20;;;14.80;;
51525;SDS011;37611;51.794;21.590;2023-04-06T16:02:31;20.30;;;15.00;;
51525;SDS011;37611;51.794;21.590;2023-04-06T16:06:44;20.20;;;17.00;;
51525;SDS011;37611;51.794;21.590;2023-04-06T16:10:49;24.80;;;20.40;;
51525;SDS011;37611;51.794;21.590;2023-04-06T16:14:51;30.10;;;23.60;;
51525;SDS011;37611;51.794;21.590;2023-04-06T16:18:53;23.10;;;18.80;;
51525;SDS011;37611;51.794;21.590;2023-04-06T16:22:55;34.00;;;28.00;;
51525;SDS011;37611;51.794;21.590;2023-04-06T16:26:57;54.60;;;34.40;;
51525;SDS011;37611;51.794;21.590;2023-04-06T16:30:59;24.20;;;19.90;;
51525;SDS011;37611;51.794;21.590;2023-04-06T16:35:02;25.80;;;19.00;;
51525;SDS011;37611;51.794;21.590;2023-04-06T16:39:05;20.90;;;14.50;;
51525;SDS011;37611;51.794;21.590;2023-04-06T16:43:07;22.80;;;19.10;;
51525;SDS011;37611;51.794;21.590;2023-04-06T16:47:10;21.40;;;16.70;;
51525;SDS011;37611;51.794;21.590;2023-04-06T16:51:12;20.50;;;16.40;;
51525;SDS011;37611;51.794;21.590;2023-04-06T16:55:13;28.30;;;21.70;;
51525;SDS011;37611;51.794;21.590;2023-04-06T16:59:15;21.00;;;15.10;;
51525;SDS011;37611;51.794;21.590;2023-04-06T17:03:17;30.70;;;20.60;;
51525;SDS011;37611;51.794;21.590;2023-04-06T17:07:19;24.10;;;17.40;;
51525;SDS011;37611;51.794;21.590;2023-04-06T17:11:25;22.30;;;15.60;;
51525;SDS011;37611;51.794;21.590;2023-04-06T17:15:27;17.00;;;14.30;;
51525;SDS011;37611;51.794;21.590;2023-04-06T17:19:29;18.80;;;15.00;;
51525;SDS011;37611;51.794;21.590;2023-04-06T17:23:32;17.20;;;14.60;;
51525;SDS011;37611;51.794;21.590;2023-04-06T17:27:34;20.00;;;16.30;;
51525;SDS011;37611;51.794;21.590;2023-04-06T17:31:36;17.50;;;14.90;;
51525;SDS011;37611;51.794;21.590;2023-04-06T17:35:37;23.50;;;17.20;;
51525;SDS011;37611;51.794;21.590;2023-04-06T17:39:39;16.50;;;14.80;;
51525;SDS011;37611;51.794;21.590;2023-04-06T17:43:41;18.40;;;16.00;;
51525;SDS011;37611;51.794;21.590;2023-04-06T17:47:43;14.70;;;12.20;;
51525;SDS011;37611;51.794;21.590;2023-04-06T17:51:45;18.20;;;14.90;;
51525;SDS011;37611;51.794;21.590;2023-04-06T17:55:47;28.30;;;21.80;;
51525;SDS011;37611;51.794;21.590;2023-04-06T17:59:49;25.00;;;19.70;;
51525;SDS011;37611;51.794;21.590;2023-04-06T18:03:51;25.00;;;19.50;;
51525;SDS011;37611;51.794;21.590;2023-04-06T18:07:53;26.70;;;23.10;;
51525;SDS011;37611;51.794;21.590;2023-04-06T18:11:56;26.30;;;22.50;;
51525;SDS011;37611;51.794;21.590;2023-04-06T18:16:01;17.20;;;15.30;;
51525;SDS011;37611;51.794;21.590;2023-04-06T18:20:03;22.40;;;19.30;;
51525;SDS011;37611;51.794;21.590;2023-04-06T18:24:05;42.20;;;35.70;;
51525;SDS011;37611;51.794;21.590;2023-04-06T18:28:08;23.30;;;18.80;;
51525;SDS011;37611;51.794;21.590;2023-04-06T18:32:12;30.00;;;23.40;;
51525;SDS011;37611;51.794;21.590;2023-04-06T18:36:15;30.30;;;21.70;;
51525;SDS011;37611;51.794;21.590;2023-04-06T18:40:30;29.40;;;22.80;;
51525;SDS011;37611;51.794;21.590;2023-04-06T18:44:39;31.20;;;27.30;;
51525;SDS011;37611;51.794;21.590;2023-04-06T18:52:54;55.00;;;34.80;;
51525;SDS011;37611;51.794;21.590;2023-04-06T18:56:59;48.90;;;36.00;;
51525;SDS011;37611;51.794;21.590;2023-04-06T19:01:19;65.30;;;46.80;;
51525;SDS011;37611;51.794;21.590;2023-04-06T19:05:34;55.50;;;38.70;;
51525;SDS011;37611;51.794;21.590;2023-04-06T19:09:36;52.50;;;38.10;;
51525;SDS011;37611;51.794;21.590;2023-04-06T19:40:26;21.40;;;18.30;;
51525;SDS011;37611;51.794;21.590;2023-04-06T20:17:42;38.20;;;31.00;;
51525;SDS011;37611;51.794;21.590;2023-04-06T20:21:44;59.00;;;41.20;;
51525;SDS011;37611;51.794;21.590;2023-04-06T20:25:49;43.00;;;31.40;;
51525;SDS011;37611;51.794;21.590;2023-04-06T20:29:51;53.40;;;36.10;;
51525;SDS011;37611;51.794;21.590;2023-04-06T20:33:54;126.10;;;75.10;;
51525;SDS011;37611;51.794;21.590;2023-04-06T20:37:56;44.60;;;35.00;;
51525;SDS011;37611;51.794;21.590;2023-04-06T20:41:58;40.80;;;34.20;;
51525;SDS011;37611;51.794;21.590;2023-04-06T20:46:01;41.10;;;28.40;;
51525;SDS011;37611;51.794;21.590;2023-04-06T20:50:04;42.30;;;30.10;;
51525;SDS011;37611;51.794;21.590;2023-04-06T20:54:07;41.50;;;32.00;;
51525;SDS011;37611;51.794;21.590;2023-04-06T20:58:09;38.00;;;27.50;;
51525;SDS011;37611;51.794;21.590;2023-04-06T21:02:11;40.10;;;29.80;;
51525;SDS011;37611;51.794;21.590;2023-04-06T21:06:18;50.70;;;35.70;;
51525;SDS011;37611;51.794;21.590;2023-04-06T21:10:21;30.10;;;23.30;;
51525;SDS011;37611;51.794;21.590;2023-04-06T21:14:24;39.70;;;29.20;;
51525;SDS011;37611;51.794;21.590;2023-04-06T21:18:29;44.90;;;31.50;;
51525;SDS011;37611;51.794;21.590;2023-04-06T21:22:35;41.90;;;30.40;;
51525;SDS011;37611;51.794;21.590;2023-04-06T21:26:37;28.70;;;25.10;;
51525;SDS011;37611;51.794;21.590;2023-04-06T21:30:39;36.30;;;26.90;;
51525;SDS011;37611;51.794;21.590;2023-04-06T21:34:46;40.60;;;29.60;;
51525;SDS011;37611;51.794;21.590;2023-04-06T21:38:51;31.50;;;23.50;;
51525;SDS011;37611;51.794;21.590;2023-04-06T21:47:36;43.50;;;34.70;;
51525;SDS011;37611;51.794;21.590;2023-04-06T21:51:41;51.50;;;37.00;;
51525;SDS011;37611;51.794;21.590;2023-04-06T21:55:46;38.40;;;28.10;;
51525;SDS011;37611;51.794;21.590;2023-04-06T21:59:48;81.50;;;52.20;;
51525;SDS011;37611;51.794;21.590;2023-04-06T22:03:50;79.40;;;54.30;;
51525;SDS011;37611;51.794;21.590;2023-04-06T22:07:53;27.10;;;22.00;;
51525;SDS011;37611;51.794;21.590;2023-04-06T22:12:00;28.40;;;22.60;;
51525;SDS011;37611;51.794;21.590;2023-04-06T22:16:08;27.00;;;20.40;;
51525;SDS011;37611;51.794;21.590;2023-04-06T22:20:10;23.70;;;19.30;;
51525;SDS011;37611;51.794;21.590;2023-04-06T22:24:23;28.20;;;22.10;;
51525;SDS011;37611;51.794;21.590;2023-04-06T22:28:29;22.60;;;19.40;;
51525;SDS011;37611;51.794;21.590;2023-04-06T22:32:39;29.00;;;22.70;;
51525;SDS011;37611;51.794;21.590;2023-04-06T22:36:41;24.20;;;20.30;;
51525;SDS011;37611;51.794;21.590;2023-04-06T22:45:45;29.40;;;23.90;;
51525;SDS011;37611;51.794;21.590;2023-04-06T22:49:48;27.20;;;22.40;;
51525;SDS011;37611;51.794;21.590;2023-04-06T22:58:43;23.20;;;20.00;;
51525;SDS011;37611;51.794;21.590;2023-04-06T23:02:57;22.30;;;18.10;;
51525;SDS011;37611;51.794;21.590;2023-04-06T23:07:11;23.60;;;20.20;;
51525;SDS011;37611;51.794;21.590;2023-04-06T23:11:19;25.20;;;20.50;;
51525;SDS011;37611;51.794;21.590;2023-04-06T23:15:24;28.20;;;22.60;;
51525;SDS011;37611;51.794;21.590;2023-04-06T23:24:36;28.00;;;22.30;;
51525;SDS011;37611;51.794;21.590;2023-04-06T23:28:51;39.70;;;33.90;;
51525;SDS011;37611;51.794;21.590;2023-04-06T23:37:08;41.90;;;33.80;;
